Talavera La Real, Spain
Current Conditions -  °F | °C
As of 1:00 PM on Friday 19 Dec 2014 (Local Time) from LEBZ Reporting Station
Haze Haze  
Wind Chill: 46°   Ceiling: 800
Heat Index: 46°   Visibility: 3mi
Dew Point: 45°   Wind: 2mph
Humidity: 93%   Direction: NA
Pressure: 30.48"   Gusts: NA
Location:  38.88°N, 6.77°W
Report Text: LEBZ 191200Z VRB02KT 5000 BR OVC008 08/07 Q1032
Loading
Personal Weather Stations






























Interactive Weather Map New forecast layout! Learn more

10-Day Weather Forecast

Advertisements
Track Severe Weather on mobile